Time;durP1;ratioP1;P1;durP2;ratioP2;P2;SDS_P1;SDS_P2;PMS_P1;PMS_P2;Temp;Humidity;BMP_temperature;BMP_pressure;BME280_temperature;BME280_humidity;BME280_pressure;Samples;Min_cycle;Max_cycle;Signal;HPM_P1;HPM_P2
2022/01/16 00:00:21;;;;;;;62.90;24.10;;;2.50;99.90;;;;;;5051200;28;20049;-67
2022/01/16 00:05:20;;;;;;;67.65;25.85;;;2.40;99.90;;;;;;5041557;28;20057;-67
2022/01/16 00:07:45;;;;;;;63.90;23.65;;;2.40;99.90;;;;;;5051002;28;20041;-66
2022/01/16 00:10:11;;;;;;;54.42;23.60;;;2.30;99.90;;;;;;5034996;28;20494;-67
2022/01/16 00:12:37;;;;;;;72.75;25.63;;;2.30;99.90;;;;;;5052106;28;20536;-66
2022/01/16 00:15:04;;;;;;;60.10;22.88;;;2.30;99.90;;;;;;5052627;28;20041;-67
2022/01/16 00:17:35;;;;;;;65.70;24.73;;;2.30;99.90;;;;;;5034871;28;20092;-66
2022/01/16 00:20:01;;;;;;;65.18;25.83;;;2.20;99.90;;;;;;5050465;28;20098;-67
2022/01/16 00:22:31;;;;;;;63.13;25.27;;;2.20;99.90;;;;;;5050098;28;20426;-66
2022/01/16 00:24:59;;;;;;;72.93;26.33;;;2.20;99.90;;;;;;5047685;28;20045;-66
2022/01/16 00:27:24;;;;;;;69.20;25.95;;;2.20;99.90;;;;;;5050194;28;20056;-66
2022/01/16 00:29:50;;;;;;;72.28;25.92;;;2.20;99.90;;;;;;5048702;28;20045;-66
2022/01/16 00:32:15;;;;;;;64.22;24.90;;;2.20;99.90;;;;;;5051496;28;20045;-66
2022/01/16 00:34:41;;;;;;;65.30;25.40;;;2.20;99.90;;;;;;5052447;28;20471;-67
2022/01/16 00:37:06;;;;;;;65.03;24.95;;;2.20;99.90;;;;;;5050133;28;20099;-67
2022/01/16 00:39:32;;;;;;;64.32;24.27;;;2.20;99.90;;;;;;5045422;28;20530;-66
2022/01/16 00:41:58;;;;;;;59.83;23.90;;;2.20;99.90;;;;;;5051045;28;20072;-65
2022/01/16 00:44:23;;;;;;;65.82;25.10;;;2.90;99.90;;;;;;5052394;28;20041;-65
2022/01/16 00:46:49;;;;;;;59.30;24.65;;;2.10;99.90;;;;;;5051140;28;20045;-67
2022/01/16 00:49:14;;;;;;;60.08;24.60;;;2.10;99.90;;;;;;5051223;28;20128;-67
2022/01/16 00:51:40;;;;;;;60.78;22.60;;;2.10;99.90;;;;;;5051698;28;20132;-66
2022/01/16 00:54:06;;;;;;;54.75;22.90;;;2.10;99.90;;;;;;5049347;28;20111;-66
2022/01/16 00:56:31;;;;;;;65.95;24.92;;;2.10;99.90;;;;;;5051816;28;20029;-68
2022/01/16 00:58:57;;;;;;;64.40;25.02;;;2.00;99.90;;;;;;5050563;28;20041;-67
2022/01/16 01:01:22;;;;;;;66.60;25.05;;;2.00;99.90;;;;;;5050176;28;20041;-66
2022/01/16 01:03:48;;;;;;;65.25;25.48;;;2.00;99.90;;;;;;5052578;28;20055;-64
2022/01/16 01:06:14;;;;;;;61.63;25.73;;;1.90;99.90;;;;;;5052530;28;20033;-65
2022/01/16 01:08:40;;;;;;;63.92;25.80;;;1.90;99.90;;;;;;5051712;28;20052;-66
2022/01/16 01:11:11;;;;;;;71.10;26.58;;;1.90;99.90;;;;;;5047261;28;20034;-66
2022/01/16 01:16:23;;;;;;;78.78;28.70;;;1.90;99.90;;;;;;5051243;28;20041;-66
2022/01/16 01:18:49;;;;;;;73.38;27.15;;;1.80;99.90;;;;;;5047849;28;20056;-66
2022/01/16 01:21:28;;;;;;;81.53;29.70;;;1.90;99.90;;;;;;5051745;28;20040;-65
2022/01/16 01:23:55;;;;;;;81.65;29.75;;;1.80;99.90;;;;;;5047862;28;20036;-66
2022/01/16 01:26:26;;;;;;;80.85;29.77;;;1.80;99.90;;;;;;5051734;28;20057;-66
2022/01/16 01:28:52;;;;;;;85.90;31.73;;;1.80;99.90;;;;;;5050096;28;20059;-66
2022/01/16 01:31:18;;;;;;;79.63;29.60;;;1.80;99.90;;;;;;5048768;28;20041;-68
2022/01/16 01:33:43;;;;;;;82.22;30.05;;;1.90;99.90;;;;;;5048320;28;20429;-67
2022/01/16 01:36:09;;;;;;;77.53;29.65;;;1.80;99.90;;;;;;5049682;28;20391;-66
2022/01/16 01:38:35;;;;;;;83.93;31.23;;;1.90;99.90;;;;;;5047469;28;20128;-66
2022/01/16 01:41:00;;;;;;;86.07;32.78;;;1.90;99.90;;;;;;5041862;28;20044;-66
2022/01/16 01:51:32;;;;;;;82.35;31.02;;;1.90;99.90;;;;;;5048830;28;20135;-66
2022/01/16 01:53:59;;;;;;;80.45;31.90;;;2.00;99.90;;;;;;5051819;28;20025;-66
2022/01/16 01:56:26;;;;;;;82.40;33.03;;;2.00;99.90;;;;;;5051214;28;20132;-67
2022/01/16 01:58:54;;;;;;;83.63;33.25;;;2.00;99.90;;;;;;5049326;28;20037;-66
2022/01/16 02:01:20;;;;;;;83.30;34.00;;;2.00;99.90;;;;;;5041617;28;20483;-66
2022/01/16 02:03:48;;;;;;;91.07;32.92;;;2.00;99.90;;;;;;5051549;28;20445;-66
2022/01/16 02:06:19;;;;;;;94.22;36.30;;;2.00;99.90;;;;;;5051471;28;20056;-67
2022/01/16 02:08:57;;;;;;;82.40;32.42;;;2.00;99.90;;;;;;5050554;28;20048;-66
2022/01/16 02:11:26;;;;;;;86.00;34.63;;;2.00;99.90;;;;;;5050394;28;20037;-66
2022/01/16 02:14:02;;;;;;;93.00;34.80;;;2.00;99.90;;;;;;5050648;28;20037;-66
2022/01/16 02:32:59;;;;;;;98.20;33.97;;;2.00;99.90;;;;;;5050271;28;20048;-66
2022/01/16 02:35:25;;;;;;;89.32;34.95;;;2.00;99.90;;;;;;5045917;28;20037;-67
2022/01/16 02:37:51;;;;;;;85.93;33.92;;;2.00;99.90;;;;;;5048317;28;20553;-67
2022/01/16 02:40:24;;;;;;;96.72;36.15;;;1.90;99.90;;;;;;5046880;28;20041;-66
2022/01/16 02:42:52;;;;;;;99.50;35.40;;;2.00;99.90;;;;;;5046275;28;20086;-67
2022/01/16 02:45:34;;;;;;;105.03;35.20;;;2.00;99.90;;;;;;5049408;28;20049;-68
2022/01/16 02:48:06;;;;;;;103.20;33.63;;;2.00;99.90;;;;;;5047955;28;20037;-66
2022/01/16 02:50:36;;;;;;;104.05;36.28;;;1.90;99.90;;;;;;5048554;28;20045;-66
2022/01/16 02:53:08;;;;;;;106.07;34.30;;;1.90;99.90;;;;;;5051501;28;20378;-66
2022/01/16 02:55:43;;;;;;;96.82;33.97;;;1.90;99.90;;;;;;5051493;28;20468;-66
2022/01/16 02:58:09;;;;;;;96.40;32.97;;;1.90;99.90;;;;;;5052572;28;20121;-67
2022/01/16 03:00:35;;;;;;;104.85;36.88;;;1.90;99.90;;;;;;5052806;28;20477;-67
2022/01/16 03:03:01;;;;;;;107.25;34.47;;;1.90;99.90;;;;;;5034480;28;20054;-66
2022/01/16 03:05:27;;;;;;;107.82;36.08;;;1.90;99.90;;;;;;5064922;28;20037;-65
2022/01/16 03:07:52;;;;;;;102.07;32.90;;;1.90;99.90;;;;;;5049334;28;20481;-67
2022/01/16 03:13:04;;;;;;;104.15;33.88;;;1.90;99.90;;;;;;5051431;28;20048;-66
2022/01/16 03:15:30;;;;;;;95.07;33.20;;;1.90;99.90;;;;;;5052837;28;20481;-66
2022/01/16 03:23:15;;;;;;;122.25;36.95;;;1.90;99.90;;;;;;5051448;28;20041;-66
2022/01/16 03:25:41;;;;;;;99.10;33.53;;;1.90;99.90;;;;;;5052165;28;20040;-66
2022/01/16 03:28:07;;;;;;;112.38;34.40;;;1.90;99.90;;;;;;5052456;28;20067;-65
2022/01/16 03:30:33;;;;;;;103.13;35.67;;;1.90;99.90;;;;;;5050577;28;20061;-67
2022/01/16 03:32:59;;;;;;;103.45;35.35;;;1.90;99.90;;;;;;5049374;28;20176;-67
2022/01/16 03:35:25;;;;;;;107.97;35.05;;;1.90;99.90;;;;;;5052765;28;20101;-67
2022/01/16 03:37:50;;;;;;;110.72;34.33;;;2.00;99.90;;;;;;5052501;28;20151;-68
2022/01/16 03:40:16;;;;;;;110.57;34.25;;;2.00;99.90;;;;;;5051832;28;20037;-67
2022/01/16 03:42:42;;;;;;;107.95;34.47;;;2.00;99.90;;;;;;5052256;28;20033;-67
2022/01/16 03:45:09;;;;;;;105.55;36.17;;;2.00;99.90;;;;;;5052772;28;20071;-67
2022/01/16 03:47:35;;;;;;;103.20;35.78;;;2.00;99.90;;;;;;5052677;28;20041;-66
2022/01/16 03:50:03;;;;;;;101.35;35.13;;;2.00;99.90;;;;;;5050428;28;20071;-68
2022/01/16 03:52:28;;;;;;;109.28;35.92;;;2.10;99.90;;;;;;5047433;28;20049;-67
2022/01/16 03:54:54;;;;;;;108.03;35.90;;;2.10;99.90;;;;;;5048003;28;20060;-65
2022/01/16 03:57:20;;;;;;;114.85;36.40;;;2.00;99.90;;;;;;5052680;28;20060;-67
2022/01/16 03:59:46;;;;;;;108.60;36.90;;;2.10;99.90;;;;;;5052578;28;20391;-66
2022/01/16 04:02:11;;;;;;;110.97;35.60;;;2.10;99.90;;;;;;5052649;28;20364;-66
2022/01/16 04:04:37;;;;;;;114.00;37.13;;;2.10;99.90;;;;;;5051719;28;20048;-66
2022/01/16 04:07:03;;;;;;;120.95;37.70;;;2.10;99.90;;;;;;5051431;28;20032;-67
2022/01/16 04:09:28;;;;;;;108.35;34.08;;;2.10;99.90;;;;;;5050467;28;20033;-66
2022/01/16 04:11:57;;;;;;;106.78;35.47;;;2.20;99.90;;;;;;5052187;28;20090;-67
2022/01/16 04:17:12;;;;;;;120.57;38.80;;;2.10;99.90;;;;;;5050304;28;20510;-66
2022/01/16 04:19:38;;;;;;;121.80;37.40;;;2.20;99.90;;;;;;5052831;28;20040;-67
2022/01/16 04:22:04;;;;;;;124.18;37.20;;;2.20;99.90;;;;;;5049662;28;20044;-67
2022/01/16 04:24:29;;;;;;;124.65;38.58;;;2.20;99.90;;;;;;5050913;28;20040;-67
2022/01/16 04:26:55;;;;;;;111.80;37.47;;;2.20;99.90;;;;;;5051301;28;20040;-66
2022/01/16 04:29:21;;;;;;;127.63;38.30;;;2.20;99.90;;;;;;5050973;28;20690;-67
2022/01/16 04:31:46;;;;;;;126.68;36.45;;;2.20;99.90;;;;;;5051228;28;20045;-66
2022/01/16 04:34:12;;;;;;;128.63;39.13;;;2.20;99.90;;;;;;5049857;28;20040;-67
2022/01/16 04:36:38;;;;;;;131.65;37.50;;;2.20;99.90;;;;;;5052887;28;20123;-66
2022/01/16 04:39:12;;;;;;;134.70;38.55;;;2.30;99.90;;;;;;5052039;28;20137;-66
2022/01/16 04:44:22;;;;;;;124.40;37.10;;;2.30;99.90;;;;;;5040810;28;20045;-66
2022/01/16 04:46:47;;;;;;;127.88;37.92;;;2.30;99.90;;;;;;5051214;28;20541;-65
2022/01/16 04:49:13;;;;;;;135.07;38.03;;;2.30;99.90;;;;;;5052021;28;20049;-65
2022/01/16 04:51:39;;;;;;;127.78;39.45;;;2.40;99.90;;;;;;5051724;28;20048;-65
2022/01/16 04:54:04;;;;;;;131.27;38.72;;;2.40;99.90;;;;;;5050531;28;20044;-66
2022/01/16 04:56:30;;;;;;;145.07;42.15;;;2.40;99.90;;;;;;5051636;28;20060;-66
2022/01/16 04:58:56;;;;;;;138.68;38.47;;;2.40;99.90;;;;;;5049579;28;20068;-66
2022/01/16 05:01:22;;;;;;;129.98;37.33;;;3.00;99.90;;;;;;5045012;28;20088;-66
2022/01/16 05:03:48;;;;;;;146.13;39.13;;;2.50;99.90;;;;;;5042409;28;20037;-66
2022/01/16 05:06:14;;;;;;;133.48;38.13;;;2.50;99.90;;;;;;5051133;28;20053;-66
2022/01/16 05:08:40;;;;;;;142.77;39.38;;;2.50;99.90;;;;;;5050194;28;20052;-66
2022/01/16 05:11:07;;;;;;;127.43;39.22;;;2.50;99.90;;;;;;5065764;28;20045;-66
2022/01/16 05:18:44;;;;;;;153.23;41.53;;;2.50;99.90;;;;;;5049719;28;20044;-66
2022/01/16 05:21:10;;;;;;;156.43;41.20;;;2.60;99.90;;;;;;5034694;28;20056;-66
2022/01/16 05:23:36;;;;;;;146.02;39.70;;;2.60;99.90;;;;;;5051773;28;20029;-67
2022/01/16 05:26:03;;;;;;;140.15;41.17;;;2.60;99.90;;;;;;5048732;28;20613;-66
2022/01/16 05:28:29;;;;;;;147.00;41.42;;;2.60;99.90;;;;;;5050045;28;20053;-67
2022/01/16 05:30:54;;;;;;;141.88;40.15;;;2.60;99.90;;;;;;5051043;28;20049;-66
2022/01/16 05:33:20;;;;;;;152.77;41.55;;;2.70;99.90;;;;;;5049543;28;20033;-68
2022/01/16 05:35:46;;;;;;;149.85;43.40;;;2.70;99.90;;;;;;5048882;28;20029;-67
2022/01/16 05:38:12;;;;;;;157.68;40.58;;;2.70;99.90;;;;;;5048893;28;20521;-66
2022/01/16 05:40:38;;;;;;;153.07;41.83;;;2.70;99.90;;;;;;5050106;28;20033;-66
2022/01/16 05:43:04;;;;;;;162.35;41.35;;;2.70;99.90;;;;;;5050954;28;20115;-66
2022/01/16 05:45:30;;;;;;;171.35;44.05;;;2.70;99.90;;;;;;5048880;28;20144;-67
2022/01/16 05:47:56;;;;;;;144.82;40.80;;;2.70;99.90;;;;;;5050795;28;20044;-67
2022/01/16 05:50:23;;;;;;;164.85;42.58;;;2.80;99.90;;;;;;5038345;28;20394;-68
2022/01/16 05:52:49;;;;;;;158.80;42.58;;;2.80;99.90;;;;;;5051613;28;20044;-66
2022/01/16 05:55:16;;;;;;;151.85;43.25;;;2.80;99.90;;;;;;5049411;28;20056;-66
2022/01/16 05:57:42;;;;;;;162.70;42.17;;;2.80;99.90;;;;;;5046152;28;20116;-67
2022/01/16 06:00:11;;;;;;;162.55;43.05;;;2.80;99.90;;;;;;5050678;28;20553;-67
2022/01/16 06:02:36;;;;;;;160.55;41.70;;;2.80;99.90;;;;;;5048941;28;20076;-67
2022/01/16 06:05:04;;;;;;;160.00;40.47;;;2.90;99.90;;;;;;5047974;28;20077;-67
2022/01/16 06:07:29;;;;;;;169.27;43.85;;;2.90;99.90;;;;;;5049242;28;20033;-67
2022/01/16 06:09:56;;;;;;;161.07;44.45;;;2.90;99.90;;;;;;5051458;28;20121;-68
2022/01/16 06:12:22;;;;;;;157.27;41.45;;;2.90;99.90;;;;;;5048744;28;20048;-66
2022/01/16 06:14:48;;;;;;;156.20;42.78;;;2.90;99.90;;;;;;5049262;28;20041;-67
2022/01/16 06:17:14;;;;;;;160.38;41.25;;;2.90;99.90;;;;;;5048919;28;20403;-67
2022/01/16 06:19:39;;;;;;;156.52;43.47;;;2.90;99.90;;;;;;5051023;28;20549;-68
2022/01/16 06:22:05;;;;;;;144.48;41.83;;;3.00;99.90;;;;;;5050530;28;20124;-67
2022/01/16 06:24:31;;;;;;;169.43;41.88;;;2.90;99.90;;;;;;5050884;28;20041;-65
2022/01/16 06:26:57;;;;;;;159.52;44.42;;;3.00;99.90;;;;;;5049305;28;20067;-68
2022/01/16 06:29:24;;;;;;;152.63;44.05;;;3.00;99.90;;;;;;5054344;28;20500;-67
2022/01/16 06:31:49;;;;;;;161.93;44.15;;;3.00;99.90;;;;;;5053274;28;20053;-66
2022/01/16 06:34:15;;;;;;;158.57;41.58;;;3.10;99.90;;;;;;5053342;28;20048;-67
2022/01/16 06:36:41;;;;;;;167.57;44.35;;;3.10;99.90;;;;;;5047164;28;20467;-67
2022/01/16 06:39:10;;;;;;;168.15;44.88;;;3.10;99.90;;;;;;5054688;28;20066;-66
2022/01/16 06:41:36;;;;;;;165.48;45.20;;;3.10;99.90;;;;;;5050792;28;20045;-67
2022/01/16 06:44:03;;;;;;;164.30;44.22;;;3.10;99.90;;;;;;5054853;28;20037;-66
2022/01/16 06:46:29;;;;;;;160.75;44.88;;;3.20;99.90;;;;;;5053270;28;20438;-67
2022/01/16 06:48:55;;;;;;;169.48;45.05;;;3.20;99.90;;;;;;5054178;28;20149;-66
2022/01/16 06:51:21;;;;;;;149.75;43.90;;;3.20;99.90;;;;;;5053336;28;20120;-67
2022/01/16 06:53:48;;;;;;;157.13;45.80;;;3.20;99.90;;;;;;5051930;28;20052;-67
2022/01/16 06:56:16;;;;;;;156.52;44.67;;;3.20;99.90;;;;;;5064668;28;20040;-67
2022/01/16 06:58:42;;;;;;;151.38;44.03;;;3.30;99.90;;;;;;5053390;28;20043;-67
2022/01/16 07:01:08;;;;;;;163.93;46.45;;;3.30;99.90;;;;;;5051758;28;20037;-67
2022/01/16 07:03:34;;;;;;;169.38;46.20;;;3.30;99.90;;;;;;5052505;28;20475;-66
2022/01/16 07:06:00;;;;;;;158.77;46.08;;;3.40;99.90;;;;;;5053016;28;20043;-67
2022/01/16 07:08:27;;;;;;;155.05;44.88;;;3.40;99.90;;;;;;5050985;28;20780;-67
2022/01/16 07:10:55;;;;;;;170.65;48.05;;;3.40;99.90;;;;;;5053517;28;20116;-66
2022/01/16 07:13:21;;;;;;;161.40;47.40;;;3.50;99.90;;;;;;5038352;28;20041;-66
2022/01/16 07:15:48;;;;;;;157.25;46.25;;;3.50;99.90;;;;;;5051552;28;20063;-67
2022/01/16 07:18:14;;;;;;;166.82;47.78;;;3.60;99.90;;;;;;5053670;28;20419;-66
2022/01/16 07:20:39;;;;;;;153.13;47.55;;;3.60;99.90;;;;;;5050929;28;20449;-66
2022/01/16 07:23:06;;;;;;;152.95;47.65;;;3.60;99.90;;;;;;5052111;28;20041;-66
2022/01/16 07:25:31;;;;;;;140.52;45.85;;;3.60;99.90;;;;;;5053445;28;20045;-66
2022/01/16 07:27:57;;;;;;;154.85;46.65;;;3.60;99.90;;;;;;5051180;28;20124;-66
2022/01/16 07:30:23;;;;;;;146.82;47.33;;;3.70;99.90;;;;;;5052487;28;20411;-67
2022/01/16 07:32:48;;;;;;;143.65;46.35;;;3.70;99.90;;;;;;5053570;28;20080;-66
2022/01/16 07:35:17;;;;;;;142.55;45.58;;;3.70;99.90;;;;;;5051590;28;20130;-66
2022/01/16 07:37:43;;;;;;;144.05;45.30;;;3.80;99.90;;;;;;5049266;28;20118;-67
2022/01/16 07:40:10;;;;;;;143.45;47.70;;;3.80;99.90;;;;;;5051076;28;20033;-67
2022/01/16 07:42:36;;;;;;;145.40;47.13;;;3.90;99.90;;;;;;5050080;28;20438;-67
2022/01/16 07:45:03;;;;;;;140.38;45.85;;;3.90;99.90;;;;;;5053174;28;20391;-67
2022/01/16 07:47:29;;;;;;;146.15;45.78;;;3.90;99.90;;;;;;5048137;28;20518;-68
2022/01/16 07:49:55;;;;;;;136.85;45.80;;;4.00;99.90;;;;;;5047545;28;20380;-67
2022/01/16 07:52:20;;;;;;;128.90;43.47;;;3.90;99.90;;;;;;5050436;28;20052;-67
2022/01/16 07:54:46;;;;;;;129.32;43.25;;;4.00;99.90;;;;;;5052476;28;20037;-67
2022/01/16 07:57:12;;;;;;;119.85;43.55;;;4.00;99.90;;;;;;5051916;28;20041;-67
2022/01/16 07:59:37;;;;;;;133.77;45.05;;;4.00;99.90;;;;;;5051737;28;20051;-67
2022/01/16 08:02:04;;;;;;;131.25;43.53;;;4.00;99.90;;;;;;5051388;28;20124;-66
2022/01/16 08:04:30;;;;;;;120.47;43.65;;;4.00;99.90;;;;;;5040676;28;20476;-66
2022/01/16 08:06:58;;;;;;;126.25;43.80;;;4.00;99.90;;;;;;5053224;28;20139;-67
2022/01/16 08:09:24;;;;;;;120.32;42.30;;;4.00;99.90;;;;;;5051316;28;20493;-67
2022/01/16 08:11:50;;;;;;;125.72;44.65;;;4.00;99.90;;;;;;5052914;28;20063;-67
2022/01/16 08:14:15;;;;;;;121.93;43.67;;;4.10;99.90;;;;;;5053151;28;20103;-67
2022/01/16 08:16:41;;;;;;;115.80;42.75;;;4.10;99.90;;;;;;5052528;28;20033;-67
2022/01/16 08:19:07;;;;;;;129.95;46.20;;;4.20;99.90;;;;;;5051990;28;20037;-66
2022/01/16 08:21:32;;;;;;;125.82;43.05;;;4.20;99.90;;;;;;5048386;28;20033;-67
2022/01/16 08:23:58;;;;;;;117.25;43.72;;;4.20;99.90;;;;;;5044396;28;20044;-67
2022/01/16 08:26:24;;;;;;;117.90;42.80;;;4.20;99.90;;;;;;5051985;28;20122;-67
2022/01/16 08:28:49;;;;;;;110.43;42.20;;;4.30;99.90;;;;;;5051720;28;20088;-67
2022/01/16 08:31:15;;;;;;;110.68;43.72;;;4.30;99.90;;;;;;5051553;28;20110;-67
2022/01/16 08:33:40;;;;;;;105.95;41.65;;;4.30;99.90;;;;;;5047991;28;20071;-67
2022/01/16 08:36:06;;;;;;;101.10;40.88;;;4.40;99.90;;;;;;5052348;28;20096;-67
2022/01/16 08:38:33;;;;;;;99.55;41.97;;;4.40;99.90;;;;;;5043652;28;20049;-66
2022/01/16 08:41:00;;;;;;;97.72;40.28;;;4.50;99.90;;;;;;5045776;28;20037;-67
2022/01/16 08:43:27;;;;;;;94.60;38.42;;;5.70;99.90;;;;;;5045534;28;20120;-66
2022/01/16 08:45:53;;;;;;;99.63;39.75;;;4.60;99.90;;;;;;5048321;28;20044;-66
2022/01/16 08:48:21;;;;;;;94.05;38.13;;;4.60;99.90;;;;;;5052427;28;20131;-66
2022/01/16 08:50:46;;;;;;;86.72;37.00;;;4.60;99.90;;;;;;5049151;28;20095;-67
2022/01/16 08:53:12;;;;;;;95.30;38.78;;;4.70;99.90;;;;;;5048605;28;20080;-68
2022/01/16 08:55:38;;;;;;;85.68;37.25;;;4.70;99.90;;;;;;5045048;28;20037;-67
2022/01/16 08:58:04;;;;;;;75.03;35.13;;;5.00;99.90;;;;;;5050416;28;20056;-66
2022/01/16 09:00:31;;;;;;;82.85;34.67;;;4.80;99.90;;;;;;5050312;28;20043;-67
2022/01/16 09:02:57;;;;;;;79.63;34.13;;;4.80;99.90;;;;;;5050538;28;20044;-67
2022/01/16 09:05:24;;;;;;;73.22;34.20;;;4.90;99.90;;;;;;5051989;28;20454;-67
2022/01/16 09:07:50;;;;;;;75.63;33.80;;;4.90;99.90;;;;;;5048649;28;20049;-66
2022/01/16 09:10:15;;;;;;;74.30;35.72;;;4.90;99.90;;;;;;5048901;28;20509;-68
2022/01/16 09:12:41;;;;;;;65.90;32.60;;;5.00;99.90;;;;;;5048782;28;20439;-67
2022/01/16 09:15:10;;;;;;;75.65;33.78;;;5.00;99.90;;;;;;5048899;28;20140;-67
2022/01/16 09:17:36;;;;;;;68.70;32.47;;;5.10;99.90;;;;;;5050859;28;20045;-67
2022/01/16 09:20:02;;;;;;;70.18;34.53;;;5.10;99.90;;;;;;5049989;28;20041;-67
2022/01/16 09:22:27;;;;;;;60.92;31.40;;;5.10;99.90;;;;;;5047410;28;20475;-68
2022/01/16 09:24:53;;;;;;;63.63;31.70;;;5.20;99.90;;;;;;5048997;28;20044;-68
2022/01/16 09:27:18;;;;;;;66.40;31.08;;;5.30;99.90;;;;;;5049301;28;20076;-68
2022/01/16 09:29:45;;;;;;;65.25;31.70;;;5.30;99.90;;;;;;5045096;28;20072;-68
2022/01/16 09:32:13;;;;;;;60.55;31.88;;;5.40;99.90;;;;;;5050541;28;20056;-67
2022/01/16 09:34:39;;;;;;;55.80;30.25;;;5.50;99.90;;;;;;5050516;28;20063;-68
2022/01/16 09:37:08;;;;;;;56.97;29.38;;;5.50;99.90;;;;;;5064941;28;20390;-67
2022/01/16 09:39:38;;;;;;;59.35;30.15;;;5.50;99.90;;;;;;5050842;28;20037;-68
2022/01/16 09:42:06;;;;;;;59.92;28.90;;;5.60;99.90;;;;;;5047843;28;20086;-68
2022/01/16 09:44:36;;;;;;;58.75;30.08;;;5.60;99.90;;;;;;5045842;28;20580;-69
2022/01/16 09:47:02;;;;;;;52.58;29.27;;;5.70;99.90;;;;;;5048261;28;20056;-68
2022/01/16 09:49:28;;;;;;;58.78;27.88;;;5.70;99.90;;;;;;5048399;28;20045;-67
2022/01/16 09:51:54;;;;;;;54.10;29.38;;;5.70;99.90;;;;;;5046224;28;20075;-68
2022/01/16 09:54:21;;;;;;;62.55;28.92;;;5.70;99.90;;;;;;5045160;28;20770;-67
2022/01/16 09:56:47;;;;;;;57.05;27.40;;;5.70;99.90;;;;;;5049308;28;20526;-68
2022/01/16 09:59:13;;;;;;;69.18;29.98;;;5.70;99.90;;;;;;5048149;28;20037;-68
2022/01/16 10:01:42;;;;;;;57.85;29.73;;;5.70;99.90;;;;;;5038942;28;20537;-69
2022/01/16 10:04:26;;;;;;;;;;;5.70;99.90;;;;;;5039649;28;20114;-68
2022/01/16 10:07:00;;;;;;;57.22;28.60;;;5.70;99.90;;;;;;5057014;28;20444;-66
2022/01/16 10:09:27;;;;;;;62.58;30.15;;;5.80;99.90;;;;;;5043118;28;20472;-67
2022/01/16 10:12:02;;;;;;;64.38;30.45;;;5.80;99.90;;;;;;5047559;28;20051;-69
2022/01/16 10:14:37;;;;;;;55.55;28.23;;;5.80;99.90;;;;;;5038821;28;20045;-68
2022/01/16 10:17:16;;;;;;;60.08;28.38;;;6.00;99.90;;;;;;5059040;28;20124;-69
2022/01/16 10:19:41;;;;;;;62.45;28.67;;;6.00;99.90;;;;;;5048211;28;21702;-68
2022/01/16 10:22:10;;;;;;;59.05;28.05;;;6.00;99.90;;;;;;5042391;28;20533;-68
2022/01/16 10:24:39;;;;;;;50.30;26.27;;;6.00;99.90;;;;;;5047469;28;20127;-67
2022/01/16 10:27:07;;;;;;;52.22;26.60;;;6.30;99.90;;;;;;5055870;28;20049;-68
2022/01/16 10:29:40;;;;;;;;;;;6.10;99.90;;;;;;5046122;28;20405;-67
2022/01/16 10:32:22;;;;;;;50.65;27.02;;;6.10;99.90;;;;;;5049975;28;19972;-67
2022/01/16 10:35:12;;;;;;;59.45;27.73;;;6.10;99.90;;;;;;5029668;28;20051;-68
2022/01/16 10:37:46;;;;;;;58.30;28.17;;;6.20;99.90;;;;;;5044380;28;20044;-68
2022/01/16 10:40:16;;;;;;;52.90;27.70;;;6.20;99.90;;;;;;5051869;28;20391;-68
2022/01/16 10:42:48;;;;;;;56.85;27.25;;;6.30;99.90;;;;;;5046410;28;20095;-68
2022/01/16 10:45:15;;;;;;;55.90;26.00;;;6.50;99.90;;;;;;5037844;28;20772;-67
2022/01/16 10:47:54;;;;;;;58.73;25.23;;;6.30;99.90;;;;;;5044700;28;20080;-68
2022/01/16 10:50:31;;;;;;;51.58;25.48;;;6.40;99.90;;;;;;5045484;28;20156;-68
2022/01/16 10:53:11;;;;;;;58.67;24.92;;;6.40;99.90;;;;;;5061042;28;20037;-68
2022/01/16 10:55:38;;;;;;;49.15;24.77;;;6.40;99.90;;;;;;5040376;28;20048;-69
2022/01/16 10:58:17;;;;;;;50.63;24.35;;;6.50;99.90;;;;;;5053847;28;20052;-66
2022/01/16 11:00:59;;;;;;;50.83;22.90;;;6.50;99.90;;;;;;5047131;28;20435;-68
2022/01/16 11:03:26;;;;;;;56.17;24.13;;;6.50;99.90;;;;;;5049761;28;20045;-67
2022/01/16 11:05:55;;;;;;;44.30;22.17;;;6.60;99.90;;;;;;5049847;28;20048;-68
2022/01/16 11:08:23;;;;;;;46.75;22.55;;;6.60;99.90;;;;;;5047316;28;20083;-68
2022/01/16 11:10:56;;;;;;;44.35;21.70;;;6.60;99.90;;;;;;5040661;28;20049;-68
2022/01/16 11:13:24;;;;;;;42.17;19.80;;;6.60;99.90;;;;;;5052239;28;20041;-68
2022/01/16 11:15:55;;;;;;;47.60;21.85;;;6.60;99.90;;;;;;5051959;28;20049;-68
2022/01/16 11:18:23;;;;;;;41.40;20.15;;;6.60;99.90;;;;;;5053605;28;20116;-67
2022/01/16 11:21:14;;;;;;;48.97;22.00;;;6.60;99.90;;;;;;5053709;28;20037;-67
2022/01/16 11:26:23;;;;;;;39.92;19.52;;;6.60;99.90;;;;;;5044937;28;20060;-66
2022/01/16 11:28:53;;;;;;;49.88;20.88;;;6.60;99.90;;;;;;5054775;28;20057;-68
2022/01/16 11:31:19;;;;;;;41.50;19.40;;;6.70;99.90;;;;;;5036422;28;20045;-67
2022/01/16 11:33:45;;;;;;;35.95;17.70;;;6.70;99.90;;;;;;5053463;28;20407;-68
2022/01/16 11:36:15;;;;;;;47.40;18.95;;;6.70;99.90;;;;;;5048120;28;20095;-69
2022/01/16 11:39:04;;;;;;;46.38;17.83;;;7.90;99.90;;;;;;5054414;28;20116;-67
2022/01/16 11:41:37;;;;;;;35.23;16.90;;;6.70;99.90;;;;;;5053613;28;20041;-68
2022/01/16 11:44:05;;;;;;;34.10;16.52;;;6.80;99.90;;;;;;5054557;28;20295;-67
2022/01/16 11:46:34;;;;;;;45.30;17.02;;;6.70;99.90;;;;;;5052492;28;20041;-68
2022/01/16 11:49:03;;;;;;;40.30;17.17;;;6.80;99.90;;;;;;5054016;28;20044;-67
2022/01/16 11:51:38;;;;;;;;;;;6.80;99.90;;;;;;5053777;28;20451;-66
2022/01/16 11:54:19;;;;;;;29.67;14.93;;;6.70;99.90;;;;;;5053162;28;19975;-67
2022/01/16 11:56:44;;;;;;;32.10;15.52;;;6.80;99.90;;;;;;5046616;28;20549;-66
2022/01/16 11:59:13;;;;;;;35.58;15.95;;;6.80;99.90;;;;;;5051720;28;20045;-66
2022/01/16 12:01:43;;;;;;;39.50;15.40;;;6.80;99.90;;;;;;5041790;28;20045;-66
2022/01/16 12:04:30;;;;;;;33.22;14.93;;;6.80;99.90;;;;;;5056408;28;20037;-67
2022/01/16 12:06:56;;;;;;;33.13;13.68;;;6.90;99.90;;;;;;5052157;28;20033;-68
2022/01/16 12:09:34;;;;;;;27.58;13.13;;;6.90;99.90;;;;;;5051203;28;20045;-67
2022/01/16 12:12:01;;;;;;;33.08;12.68;;;6.90;99.90;;;;;;5053712;28;20136;-67
2022/01/16 12:14:45;;;;;;;32.80;13.00;;;6.90;99.90;;;;;;5035844;28;20076;-67
2022/01/16 12:17:31;;;;;;;29.42;10.40;;;6.90;99.90;;;;;;5052583;28;20480;-66
2022/01/16 12:20:12;;;;;;;22.92;10.15;;;7.00;99.90;;;;;;5046707;28;20884;-67
2022/01/16 12:22:43;;;;;;;24.35;10.77;;;7.00;99.90;;;;;;5052170;28;20151;-66
2022/01/16 12:25:43;;;;;;;30.42;10.27;;;6.90;99.90;;;;;;5052122;28;20123;-66
2022/01/16 12:28:08;;;;;;;24.33;9.95;;;6.90;99.90;;;;;;5041012;28;20110;-68
2022/01/16 12:30:51;;;;;;;20.58;8.95;;;6.90;99.90;;;;;;5028481;28;20507;-67
2022/01/16 12:33:24;;;;;;;19.58;8.00;;;6.90;99.90;;;;;;5053595;28;20402;-68
2022/01/16 12:35:58;;;;;;;27.05;10.18;;;6.90;99.90;;;;;;5053064;28;20060;-68
2022/01/16 12:38:29;;;;;;;25.83;9.73;;;6.90;99.90;;;;;;5052292;28;20080;-66
2022/01/16 12:41:21;;;;;;;25.88;9.00;;;6.90;99.90;;;;;;5052722;28;20391;-67
2022/01/16 12:44:00;;;;;;;27.05;8.25;;;6.90;99.90;;;;;;5041022;28;20131;-67
2022/01/16 12:46:32;;;;;;;19.65;8.20;;;6.90;99.90;;;;;;5044030;28;20049;-69
2022/01/16 12:49:02;;;;;;;23.27;8.57;;;7.00;99.90;;;;;;5048603;28;20044;-69
2022/01/16 12:51:30;;;;;;;16.33;7.55;;;6.90;99.90;;;;;;5050399;28;20076;-69
2022/01/16 12:54:04;;;;;;;23.05;8.38;;;7.00;99.90;;;;;;5044913;28;20041;-67
2022/01/16 12:56:33;;;;;;;19.83;8.18;;;7.00;99.90;;;;;;5048433;28;20044;-67
2022/01/16 12:59:24;;;;;;;20.45;8.27;;;7.00;99.90;;;;;;5049448;28;20491;-66
2022/01/16 13:01:55;;;;;;;23.08;7.38;;;7.00;99.90;;;;;;5049794;28;20122;-68
2022/01/16 13:04:26;;;;;;;19.33;8.10;;;7.00;99.90;;;;;;5050146;28;20040;-67
2022/01/16 13:06:53;;;;;;;26.35;8.55;;;7.00;99.90;;;;;;5065347;28;20139;-66
2022/01/16 13:09:18;;;;;;;16.55;7.57;;;7.00;99.90;;;;;;5033036;28;20056;-67
2022/01/16 13:11:48;;;;;;;26.52;8.27;;;7.00;99.90;;;;;;5045174;28;20037;-68
2022/01/16 13:14:17;;;;;;;19.38;8.18;;;7.00;99.90;;;;;;5048365;28;20582;-68
2022/01/16 13:16:45;;;;;;;15.82;8.05;;;7.00;99.90;;;;;;5049412;28;20571;-68
2022/01/16 13:19:16;;;;;;;19.75;8.40;;;7.00;99.90;;;;;;5048368;28;20040;-68
2022/01/16 13:21:43;;;;;;;15.65;7.90;;;7.20;99.90;;;;;;5045763;28;20557;-69
2022/01/16 13:24:26;;;;;;;15.23;7.03;;;6.90;99.90;;;;;;5048080;28;20067;-68
2022/01/16 13:26:51;;;;;;;18.55;7.90;;;7.00;99.90;;;;;;5019284;28;20053;-68
2022/01/16 13:29:19;;;;;;;26.38;8.77;;;7.00;99.90;;;;;;5048020;28;20063;-67